Flight Track Log - Related Links

Times and Time Zones

All times are in EDT time to prevent confusion due to time zone crossing. See the N517JG flight status page for this flight to view local times or setup timezone preferences in your user account.

Time Position Orientation Groundspeed Altitude Reporting Facility
EDT Latitude Longitude Course Direction KTS MPH feet Rate Location/Type
Sun 10:26:17 PM 33.6064 -85.7872 66° East 207 238 3,500  Level Atlanta Center
Sun 10:27:21 PM 33.6181 -85.7153 79° East 241 277 4,300 726 Climbing Atlanta Center
Sun 10:28:21 PM 33.6169 -85.6328 91° East 249 287 5,000 1,150 Climbing Atlanta Center
Sun 10:29:00 PM 33.7950 -85.3069 66° East  Level Estimated
Sun 10:29:21 PM 33.5803 -85.5647 123° Southeast 237 273 6,600  Level Atlanta Center
Sun 10:30:00 PM 33.8292 -85.2147 66° East  Level Estimated
Sun 10:30:21 PM 33.5350 -85.5017 131° Southeast 237 273 9,000  Level Atlanta Center
Sun 10:31:00 PM 33.8634 -85.1225 66° East  Level Estimated
Sun 10:31:21 PM 33.4900 -85.4411 132° Southeast 242 278 11,100  Level Atlanta Center
Sun 10:32:21 PM 33.4678 -85.3536 107° East 245 282 12,900 1,800 Climbing Atlanta Center
Sun 10:33:21 PM 33.4731 -85.2592 86° East 252 290 14,700 1,850 Climbing Atlanta Center
Sun 10:34:21 PM 33.4781 -85.1669 86° East 275 316 16,600 1,850 Climbing Atlanta Center
Sun 10:35:21 PM 33.4978 -85.0653 77° East 295 339 18,400 1,750 Climbing Atlanta Center
Sun 10:36:21 PM 33.5194 -84.9658 75° East 300 345 20,100 1,550 Climbing Atlanta Center
Sun 10:37:21 PM 33.5389 -84.8636 77° East 305 351 21,500 1,350 Climbing Atlanta Center
Sun 10:38:21 PM 33.5625 -84.7592 75° East 316 364 22,800 1,150 Climbing Atlanta Center
Sun 10:39:21 PM 33.5839 -84.6522 76° East 322 371 23,800 950 Climbing Atlanta Center
Sun 10:40:21 PM 33.6053 -84.5550 75° East 322 371 24,700 600 Climbing Atlanta Center
Sun 10:41:21 PM 33.6244 -84.4431 78° East 333 383 25,000 150 Climbing Atlanta Center
Sun 10:42:21 PM 33.6603 -84.3258 70° East 346 398 25,000  Level Atlanta Center
Sun 10:43:21 PM 33.6961 -84.1886 73° East 378 435 25,000  Level Atlanta Center
Sun 10:44:21 PM 33.7336 -84.0664 70° East 397 457 25,000  Level Atlanta Center
Sun 10:45:21 PM 33.7669 -83.9414 72° East 392 451 25,000  Level Atlanta Center
Sun 10:46:21 PM 33.8025 -83.8189 71° East 387 445 25,000  Level Atlanta Center
Sun 10:47:21 PM 33.8375 -83.6961 71° East 387 445 25,000  Level Atlanta Center
Sun 10:48:21 PM 33.8706 -83.5683 73° East 387 445 25,000 -50 Level Atlanta Center
Sun 10:49:21 PM 33.9014 -83.4581 71° East 387 445 24,900 -500 Descending Atlanta Center
Sun 10:50:21 PM 33.9383 -83.3328 70° East 387 445 24,000 -900 Descending Atlanta Center
Sun 10:51:21 PM 33.9689 -83.2147 73° East 382 440 23,100 -950 Descending Atlanta Center
Sun 10:52:21 PM 34.0181 -83.0989 63° Northeast 377 434 22,100 -1,050 Descending Atlanta Center
Sun 10:53:21 PM 34.0694 -82.9856 61° Northeast 384 442 21,000 -1,050 Descending Atlanta Center
Sun 10:54:21 PM 34.1206 -82.8769 60° Northeast 379 436 20,000 -1,000 Descending Atlanta Center
Sun 10:55:21 PM 34.1717 -82.7683 60° Northeast 374 430 19,000 -1,050 Descending Atlanta Center
Sun 10:56:21 PM 34.2247 -82.6644 58° Northeast 362 417 17,900 -1,000 Descending Atlanta Center
Sun 10:57:21 PM 34.2694 -82.5608 62° Northeast 357 411 17,000 -1,000 Descending Atlanta Center
Sun 10:58:21 PM 34.3183 -82.4517 62° Northeast 351 404 15,900 -1,050 Descending Atlanta Center
Sun 10:59:21 PM 34.3650 -82.3478 61° Northeast 356 410 14,900 -600 Descending Atlanta Center
Sun 11:00:21 PM 34.4156 -82.2458 59° Northeast 356 410 14,700 -500 Descending Atlanta Center
Sun 11:01:21 PM 34.4600 -82.1467 61° Northeast 350 403 13,900 -800 Descending Atlanta Center
Sun 11:02:21 PM 34.5022 -82.0500 62° Northeast 340 391 13,100 -800 Descending Atlanta Center
Sun 11:03:21 PM 34.5486 -81.9531 60° Northeast 334 384 12,300 -800 Descending Atlanta Center
Sun 11:04:21 PM 34.5931 -81.8586 60° Northeast 323 372 11,500 -610 Descending Atlanta Center
Sun 11:05:19 PM 34.6369 -81.7567 62° Northeast 311 358 11,100 -361 Descending Atlanta Center
Sun 11:05:44 PM 34.6531 -81.7233 60° Northeast 305 351 11,000 -194 Descending Atlanta Center
Sun 11:06:21 PM 34.6772 -81.6694 61° Northeast 304 350 10,900  Descending Atlanta Center
Sun 11:06:45 PM 34.6933 -81.6364 59° Northeast 300 345 11,000  Climbing Atlanta Center
Sun 11:07:21 PM 34.7172 -81.5800 63° Northeast 304 350 10,900  Descending Atlanta Center
Sun 11:07:51 PM 34.7372 -81.5414 58° Northeast 301 346 11,000  Climbing Atlanta Center
Sun 11:08:21 PM 34.7617 -81.5103 46° Northeast 293 337 10,900 -393 Descending Atlanta Center
Sun 11:08:52 PM 34.7856 -81.4542 63° Northeast 283 326 10,600 -800 Descending Atlanta Center
Sun 11:09:21 PM 34.7911 -81.4236 78° East 279 321 10,100 -1,254 Descending Atlanta Center
Sun 11:09:59 PM 34.8003 -81.3600 80° East 259 298 9,200 -1,300 Descending Atlanta Center
Sun 11:10:21 PM 34.8019 -81.3397 84° East 256 295 8,800 -1,075 Descending Atlanta Center
Sun 11:11:06 PM 34.8025 -81.2789 89° East 195 224 8,000 -1,000 Descending Atlanta Center
Sun 11:11:21 PM 34.8044 -81.2714 72° East 219 252 7,800 -984 Descending Atlanta Center
Sun 11:12:07 PM 34.8053 -81.2131 89° East 199 229 7,000 -1,010 Descending Atlanta Center
Sun 11:13:02 PM 34.8228 -81.1544 70° East 218 251 6,100 -1,216 Descending Atlanta Center
Sun 11:13:21 PM 34.8286 -81.1389 65° Northeast 199 229 5,500 -1,600 Descending Atlanta Center
Sun 11:14:02 PM 34.8525 -81.0900 59° Northeast 201 231 4,500 -1,400 Descending Atlanta Center
Sun 11:14:21 PM 34.8542 -81.0772 81° East 199 229 4,100 -1,180 Descending Atlanta Center
Sun 11:15:03 PM 34.8719 -81.0336 64° Northeast 182 209 3,300 -680 Descending Atlanta Center
Sun 11:15:58 PM 34.8914 -80.9822 65° Northeast 171 197 3,000 -207 Descending Atlanta Center
Sun 11:16:59 PM 34.9322 -80.9403 40° Northeast 198 228 2,900 -261 Descending Atlanta Center
Sun 11:17:53 PM 34.9753 -80.9083 31° Northeast 204 235 2,500 -209 Descending Atlanta Center
Sun 11:18:54 PM 35.0183 -80.8786 29° Northeast 191 220 2,500  Level Atlanta Center
Sun 11:19:55 PM 35.0633 -80.8442 32° Northeast 180 207 2,500  Level Atlanta Center
Sun 11:20:50 PM 35.1003 -80.8172 31° Northeast 159 183 2,500  Level Atlanta Center
Sun 11:21:51 PM 35.1392 -80.7903 30° Northeast 157 181 2,500  Level Atlanta Center
Sun 11:22:51 PM 35.1800 -80.7608 31° Northeast 168 193 2,500  Level Atlanta Center
Sun 11:23:52 PM 35.2256 -80.7489 12° North 176 203 2,500 47 Level Atlanta Center
Sun 11:24:59 PM 35.2753 -80.7342 14° North 156 180 2,600 -281 Climbing Atlanta Center
Sun 11:26:00 PM 35.3189 -80.7247 10° North 155 178 1,900 -744 Descending Atlanta Center
Sun 11:27:00 PM 35.3561 -80.7181 North 136 157 1,100 -417 Descending Atlanta Center
Sun 11:27:55 PM 35.3811 -80.7144 North 134 154 1,100  Level Atlanta Center

Login

Don't have an account? Register now (free) for customized features, flight alerts, and more!